sensor_id;sensor_type;location;lat;lon;timestamp;P1;durP1;ratioP1;P2;durP2;ratioP2
21360;SDS011;10839;43.206;23.550;2022-12-18T00:01:29;56.00;;;23.48;;
21360;SDS011;10839;43.206;23.550;2022-12-18T00:03:58;55.80;;;24.15;;
21360;SDS011;10839;43.206;23.550;2022-12-18T00:06:26;50.22;;;22.58;;
21360;SDS011;10839;43.206;23.550;2022-12-18T00:08:54;38.88;;;19.05;;
21360;SDS011;10839;43.206;23.550;2022-12-18T00:11:22;38.10;;;19.30;;
21360;SDS011;10839;43.206;23.550;2022-12-18T00:13:50;35.83;;;18.23;;
21360;SDS011;10839;43.206;23.550;2022-12-18T00:16:18;40.75;;;19.42;;
21360;SDS011;10839;43.206;23.550;2022-12-18T00:18:46;50.53;;;22.30;;
21360;SDS011;10839;43.206;23.550;2022-12-18T00:21:16;50.40;;;23.88;;
21360;SDS011;10839;43.206;23.550;2022-12-18T00:23:45;48.33;;;23.48;;
21360;SDS011;10839;43.206;23.550;2022-12-18T00:26:13;57.63;;;24.30;;
21360;SDS011;10839;43.206;23.550;2022-12-18T00:28:41;47.42;;;22.25;;
21360;SDS011;10839;43.206;23.550;2022-12-18T00:31:08;51.97;;;23.25;;
21360;SDS011;10839;43.206;23.550;2022-12-18T00:33:36;46.42;;;23.13;;
21360;SDS011;10839;43.206;23.550;2022-12-18T00:36:02;46.75;;;23.33;;
21360;SDS011;10839;43.206;23.550;2022-12-18T00:38:31;44.90;;;21.33;;
21360;SDS011;10839;43.206;23.550;2022-12-18T00:40:57;42.70;;;21.25;;
21360;SDS011;10839;43.206;23.550;2022-12-18T00:43:23;45.17;;;22.20;;
21360;SDS011;10839;43.206;23.550;2022-12-18T00:45:49;50.00;;;24.02;;
21360;SDS011;10839;43.206;23.550;2022-12-18T00:48:15;48.53;;;22.48;;
21360;SDS011;10839;43.206;23.550;2022-12-18T00:50:41;54.13;;;24.65;;
21360;SDS011;10839;43.206;23.550;2022-12-18T00:53:06;55.05;;;25.52;;
21360;SDS011;10839;43.206;23.550;2022-12-18T00:55:36;49.78;;;25.15;;
21360;SDS011;10839;43.206;23.550;2022-12-18T00:58:04;49.53;;;23.20;;
21360;SDS011;10839;43.206;23.550;2022-12-18T01:00:30;49.30;;;22.98;;
21360;SDS011;10839;43.206;23.550;2022-12-18T01:02:56;50.83;;;23.30;;
21360;SDS011;10839;43.206;23.550;2022-12-18T01:05:23;48.30;;;21.90;;
21360;SDS011;10839;43.206;23.550;2022-12-18T01:07:50;44.38;;;21.20;;
21360;SDS011;10839;43.206;23.550;2022-12-18T01:10:16;43.78;;;20.52;;
21360;SDS011;10839;43.206;23.550;2022-12-18T01:12:42;40.22;;;17.50;;
21360;SDS011;10839;43.206;23.550;2022-12-18T01:15:09;41.33;;;19.40;;
21360;SDS011;10839;43.206;23.550;2022-12-18T01:17:37;40.55;;;20.45;;
21360;SDS011;10839;43.206;23.550;2022-12-18T01:20:03;42.10;;;19.02;;
21360;SDS011;10839;43.206;23.550;2022-12-18T01:22:29;38.67;;;18.98;;
21360;SDS011;10839;43.206;23.550;2022-12-18T01:24:55;40.92;;;19.25;;
21360;SDS011;10839;43.206;23.550;2022-12-18T01:27:21;40.95;;;19.70;;
21360;SDS011;10839;43.206;23.550;2022-12-18T01:29:48;39.45;;;19.35;;
21360;SDS011;10839;43.206;23.550;2022-12-18T01:32:14;40.28;;;19.85;;
21360;SDS011;10839;43.206;23.550;2022-12-18T01:34:40;44.75;;;21.80;;
21360;SDS011;10839;43.206;23.550;2022-12-18T01:37:06;46.95;;;21.70;;
21360;SDS011;10839;43.206;23.550;2022-12-18T01:39:32;40.75;;;21.42;;
21360;SDS011;10839;43.206;23.550;2022-12-18T01:42:02;40.97;;;20.58;;
21360;SDS011;10839;43.206;23.550;2022-12-18T01:47:28;38.25;;;20.08;;
21360;SDS011;10839;43.206;23.550;2022-12-18T01:50:10;41.65;;;19.33;;
21360;SDS011;10839;43.206;23.550;2022-12-18T01:52:39;34.35;;;18.55;;
21360;SDS011;10839;43.206;23.550;2022-12-18T01:55:08;37.33;;;19.33;;
21360;SDS011;10839;43.206;23.550;2022-12-18T01:57:34;35.38;;;18.85;;
21360;SDS011;10839;43.206;23.550;2022-12-18T02:00:07;38.42;;;19.52;;
21360;SDS011;10839;43.206;23.550;2022-12-18T02:02:40;38.20;;;20.20;;
21360;SDS011;10839;43.206;23.550;2022-12-18T02:05:09;37.60;;;19.58;;
21360;SDS011;10839;43.206;23.550;2022-12-18T02:07:42;39.60;;;19.42;;
21360;SDS011;10839;43.206;23.550;2022-12-18T02:13:36;41.45;;;20.60;;
21360;SDS011;10839;43.206;23.550;2022-12-18T02:16:08;45.97;;;21.73;;
21360;SDS011;10839;43.206;23.550;2022-12-18T02:18:59;39.10;;;19.77;;
21360;SDS011;10839;43.206;23.550;2022-12-18T02:22:14;41.63;;;20.70;;
21360;SDS011;10839;43.206;23.550;2022-12-18T02:24:34;44.25;;;21.48;;
21360;SDS011;10839;43.206;23.550;2022-12-18T02:27:28;42.10;;;21.45;;
21360;SDS011;10839;43.206;23.550;2022-12-18T02:29:57;38.55;;;19.77;;
21360;SDS011;10839;43.206;23.550;2022-12-18T02:32:28;38.08;;;18.70;;
21360;SDS011;10839;43.206;23.550;2022-12-18T02:35:01;34.67;;;17.20;;
21360;SDS011;10839;43.206;23.550;2022-12-18T02:37:31;35.38;;;17.42;;
21360;SDS011;10839;43.206;23.550;2022-12-18T02:40:02;35.13;;;17.65;;
21360;SDS011;10839;43.206;23.550;2022-12-18T02:42:31;36.28;;;17.42;;
21360;SDS011;10839;43.206;23.550;2022-12-18T02:44:59;31.88;;;17.75;;
21360;SDS011;10839;43.206;23.550;2022-12-18T02:47:28;34.30;;;18.38;;
21360;SDS011;10839;43.206;23.550;2022-12-18T03:01:43;34.20;;;17.25;;
21360;SDS011;10839;43.206;23.550;2022-12-18T03:06:54;30.35;;;16.90;;
21360;SDS011;10839;43.206;23.550;2022-12-18T03:09:43;33.08;;;17.83;;
21360;SDS011;10839;43.206;23.550;2022-12-18T03:14:52;40.70;;;20.23;;
21360;SDS011;10839;43.206;23.550;2022-12-18T03:17:32;38.17;;;18.52;;
21360;SDS011;10839;43.206;23.550;2022-12-18T03:20:10;47.53;;;23.00;;
21360;SDS011;10839;43.206;23.550;2022-12-18T03:22:40;152.80;;;67.47;;
21360;SDS011;10839;43.206;23.550;2022-12-18T03:25:10;97.63;;;44.90;;
21360;SDS011;10839;43.206;23.550;2022-12-18T03:27:42;50.85;;;24.48;;
21360;SDS011;10839;43.206;23.550;2022-12-18T03:33:24;42.03;;;20.90;;
21360;SDS011;10839;43.206;23.550;2022-12-18T03:35:31;36.78;;;19.15;;
21360;SDS011;10839;43.206;23.550;2022-12-18T03:38:00;35.60;;;18.13;;
21360;SDS011;10839;43.206;23.550;2022-12-18T03:41:03;40.30;;;19.48;;
21360;SDS011;10839;43.206;23.550;2022-12-18T03:43:51;87.38;;;41.90;;
21360;SDS011;10839;43.206;23.550;2022-12-18T03:46:33;70.15;;;34.10;;
21360;SDS011;10839;43.206;23.550;2022-12-18T03:50:02;57.40;;;24.73;;
21360;SDS011;10839;43.206;23.550;2022-12-18T03:54:54;39.25;;;20.77;;
21360;SDS011;10839;43.206;23.550;2022-12-18T03:57:22;41.55;;;20.92;;
21360;SDS011;10839;43.206;23.550;2022-12-18T04:00:00;42.65;;;20.75;;
21360;SDS011;10839;43.206;23.550;2022-12-18T04:02:40;41.75;;;20.63;;
21360;SDS011;10839;43.206;23.550;2022-12-18T04:05:19;42.38;;;21.00;;
21360;SDS011;10839;43.206;23.550;2022-12-18T04:07:47;40.15;;;21.02;;
21360;SDS011;10839;43.206;23.550;2022-12-18T04:10:16;41.38;;;20.60;;
21360;SDS011;10839;43.206;23.550;2022-12-18T04:12:43;50.17;;;23.90;;
21360;SDS011;10839;43.206;23.550;2022-12-18T04:15:11;93.57;;;42.22;;
21360;SDS011;10839;43.206;23.550;2022-12-18T04:17:38;98.07;;;43.75;;
21360;SDS011;10839;43.206;23.550;2022-12-18T04:20:14;64.75;;;31.80;;
21360;SDS011;10839;43.206;23.550;2022-12-18T04:22:42;39.95;;;21.50;;
21360;SDS011;10839;43.206;23.550;2022-12-18T04:25:08;43.70;;;21.20;;
21360;SDS011;10839;43.206;23.550;2022-12-18T04:27:38;46.30;;;21.75;;
21360;SDS011;10839;43.206;23.550;2022-12-18T04:30:05;39.67;;;20.58;;
21360;SDS011;10839;43.206;23.550;2022-12-18T04:32:33;52.78;;;25.13;;
21360;SDS011;10839;43.206;23.550;2022-12-18T04:34:59;55.22;;;25.88;;
21360;SDS011;10839;43.206;23.550;2022-12-18T04:37:25;52.65;;;25.90;;
21360;SDS011;10839;43.206;23.550;2022-12-18T04:39:51;45.30;;;22.98;;
21360;SDS011;10839;43.206;23.550;2022-12-18T04:42:24;45.53;;;21.05;;
21360;SDS011;10839;43.206;23.550;2022-12-18T04:44:50;42.90;;;22.35;;
21360;SDS011;10839;43.206;23.550;2022-12-18T04:47:16;48.30;;;22.85;;
21360;SDS011;10839;43.206;23.550;2022-12-18T04:49:43;45.05;;;22.95;;
21360;SDS011;10839;43.206;23.550;2022-12-18T04:52:08;48.92;;;22.23;;
21360;SDS011;10839;43.206;23.550;2022-12-18T04:54:34;88.57;;;41.10;;
21360;SDS011;10839;43.206;23.550;2022-12-18T04:57:00;66.70;;;32.33;;
21360;SDS011;10839;43.206;23.550;2022-12-18T04:59:26;80.47;;;36.45;;
21360;SDS011;10839;43.206;23.550;2022-12-18T05:01:52;49.70;;;23.38;;
21360;SDS011;10839;43.206;23.550;2022-12-18T05:04:19;51.00;;;22.70;;
21360;SDS011;10839;43.206;23.550;2022-12-18T05:06:45;47.50;;;21.58;;
21360;SDS011;10839;43.206;23.550;2022-12-18T05:09:11;48.47;;;23.17;;
21360;SDS011;10839;43.206;23.550;2022-12-18T05:11:36;49.47;;;22.92;;
21360;SDS011;10839;43.206;23.550;2022-12-18T05:14:02;52.05;;;23.38;;
21360;SDS011;10839;43.206;23.550;2022-12-18T05:16:29;49.38;;;23.80;;
21360;SDS011;10839;43.206;23.550;2022-12-18T05:18:54;48.53;;;22.60;;
21360;SDS011;10839;43.206;23.550;2022-12-18T05:21:21;54.88;;;24.05;;
21360;SDS011;10839;43.206;23.550;2022-12-18T05:23:46;45.92;;;22.08;;
21360;SDS011;10839;43.206;23.550;2022-12-18T05:26:14;45.45;;;21.98;;
21360;SDS011;10839;43.206;23.550;2022-12-18T05:28:42;42.85;;;20.73;;
21360;SDS011;10839;43.206;23.550;2022-12-18T05:31:08;52.78;;;23.45;;
21360;SDS011;10839;43.206;23.550;2022-12-18T05:33:35;49.58;;;22.20;;
21360;SDS011;10839;43.206;23.550;2022-12-18T05:36:01;52.17;;;25.55;;
21360;SDS011;10839;43.206;23.550;2022-12-18T05:38:29;150.20;;;65.93;;
21360;SDS011;10839;43.206;23.550;2022-12-18T05:40:56;90.43;;;38.83;;
21360;SDS011;10839;43.206;23.550;2022-12-18T05:43:23;78.20;;;32.75;;
21360;SDS011;10839;43.206;23.550;2022-12-18T05:45:51;73.68;;;31.13;;
21360;SDS011;10839;43.206;23.550;2022-12-18T05:48:18;58.30;;;28.20;;
21360;SDS011;10839;43.206;23.550;2022-12-18T05:50:45;59.53;;;27.60;;
21360;SDS011;10839;43.206;23.550;2022-12-18T05:53:13;57.33;;;26.85;;
21360;SDS011;10839;43.206;23.550;2022-12-18T05:55:40;57.47;;;27.55;;
21360;SDS011;10839;43.206;23.550;2022-12-18T05:58:08;49.15;;;23.33;;
21360;SDS011;10839;43.206;23.550;2022-12-18T06:00:35;46.75;;;23.45;;
21360;SDS011;10839;43.206;23.550;2022-12-18T06:03:05;49.58;;;24.08;;
21360;SDS011;10839;43.206;23.550;2022-12-18T06:05:36;45.90;;;22.13;;
21360;SDS011;10839;43.206;23.550;2022-12-18T06:08:03;50.35;;;24.85;;
21360;SDS011;10839;43.206;23.550;2022-12-18T06:10:28;48.83;;;22.15;;
21360;SDS011;10839;43.206;23.550;2022-12-18T06:12:54;49.80;;;22.45;;
21360;SDS011;10839;43.206;23.550;2022-12-18T06:15:20;67.30;;;27.33;;
21360;SDS011;10839;43.206;23.550;2022-12-18T06:17:46;58.05;;;24.13;;
21360;SDS011;10839;43.206;23.550;2022-12-18T06:20:12;70.68;;;27.92;;
21360;SDS011;10839;43.206;23.550;2022-12-18T06:22:37;133.35;;;56.40;;
21360;SDS011;10839;43.206;23.550;2022-12-18T06:25:04;89.18;;;38.97;;
21360;SDS011;10839;43.206;23.550;2022-12-18T06:27:31;71.90;;;33.25;;
21360;SDS011;10839;43.206;23.550;2022-12-18T06:29:59;65.03;;;29.63;;
21360;SDS011;10839;43.206;23.550;2022-12-18T06:32:25;55.22;;;28.48;;
21360;SDS011;10839;43.206;23.550;2022-12-18T06:34:51;58.47;;;28.10;;
21360;SDS011;10839;43.206;23.550;2022-12-18T06:37:19;58.60;;;27.52;;
21360;SDS011;10839;43.206;23.550;2022-12-18T06:39:44;53.35;;;25.77;;
21360;SDS011;10839;43.206;23.550;2022-12-18T06:42:10;46.75;;;24.48;;
21360;SDS011;10839;43.206;23.550;2022-12-18T06:44:36;53.08;;;23.92;;
21360;SDS011;10839;43.206;23.550;2022-12-18T06:47:02;56.47;;;22.67;;
21360;SDS011;10839;43.206;23.550;2022-12-18T06:49:28;52.03;;;23.13;;
21360;SDS011;10839;43.206;23.550;2022-12-18T06:51:54;48.78;;;21.95;;
21360;SDS011;10839;43.206;23.550;2022-12-18T06:54:20;52.10;;;23.77;;
21360;SDS011;10839;43.206;23.550;2022-12-18T06:56:49;39.20;;;19.95;;
21360;SDS011;10839;43.206;23.550;2022-12-18T06:59:14;57.20;;;23.33;;
21360;SDS011;10839;43.206;23.550;2022-12-18T07:01:40;51.63;;;22.15;;
21360;SDS011;10839;43.206;23.550;2022-12-18T07:04:06;49.47;;;23.40;;
21360;SDS011;10839;43.206;23.550;2022-12-18T07:06:32;49.80;;;21.15;;
21360;SDS011;10839;43.206;23.550;2022-12-18T07:08:58;51.28;;;22.15;;
21360;SDS011;10839;43.206;23.550;2022-12-18T07:11:24;50.50;;;21.35;;
21360;SDS011;10839;43.206;23.550;2022-12-18T07:13:50;51.05;;;21.05;;
21360;SDS011;10839;43.206;23.550;2022-12-18T07:16:19;44.28;;;20.00;;
21360;SDS011;10839;43.206;23.550;2022-12-18T07:18:46;44.03;;;20.67;;
21360;SDS011;10839;43.206;23.550;2022-12-18T07:21:13;66.05;;;37.22;;
21360;SDS011;10839;43.206;23.550;2022-12-18T07:23:41;47.60;;;23.10;;
21360;SDS011;10839;43.206;23.550;2022-12-18T07:26:11;45.17;;;21.92;;
21360;SDS011;10839;43.206;23.550;2022-12-18T07:28:38;48.55;;;22.10;;
21360;SDS011;10839;43.206;23.550;2022-12-18T07:31:06;83.55;;;39.88;;
21360;SDS011;10839;43.206;23.550;2022-12-18T07:33:33;128.25;;;55.80;;
21360;SDS011;10839;43.206;23.550;2022-12-18T07:36:00;105.25;;;41.67;;
21360;SDS011;10839;43.206;23.550;2022-12-18T07:38:30;53.33;;;22.63;;
21360;SDS011;10839;43.206;23.550;2022-12-18T07:41:00;49.25;;;23.27;;
21360;SDS011;10839;43.206;23.550;2022-12-18T07:43:31;68.97;;;28.38;;
21360;SDS011;10839;43.206;23.550;2022-12-18T07:45:58;54.08;;;23.75;;
21360;SDS011;10839;43.206;23.550;2022-12-18T07:48:23;50.10;;;24.38;;
21360;SDS011;10839;43.206;23.550;2022-12-18T07:50:49;53.45;;;23.50;;
21360;SDS011;10839;43.206;23.550;2022-12-18T07:53:15;57.15;;;25.23;;
21360;SDS011;10839;43.206;23.550;2022-12-18T07:55:41;46.75;;;22.45;;
21360;SDS011;10839;43.206;23.550;2022-12-18T07:58:07;31.45;;;16.45;;
21360;SDS011;10839;43.206;23.550;2022-12-18T08:00:34;21.73;;;11.45;;
21360;SDS011;10839;43.206;23.550;2022-12-18T08:03:01;16.45;;;9.93;;
21360;SDS011;10839;43.206;23.550;2022-12-18T08:05:27;12.95;;;8.40;;
21360;SDS011;10839;43.206;23.550;2022-12-18T08:07:53;17.15;;;8.88;;
21360;SDS011;10839;43.206;23.550;2022-12-18T08:10:20;18.55;;;10.20;;
21360;SDS011;10839;43.206;23.550;2022-12-18T08:12:48;22.00;;;10.35;;
21360;SDS011;10839;43.206;23.550;2022-12-18T08:15:15;24.05;;;10.43;;
21360;SDS011;10839;43.206;23.550;2022-12-18T08:17:41;24.13;;;11.40;;
21360;SDS011;10839;43.206;23.550;2022-12-18T08:20:07;22.25;;;10.13;;
21360;SDS011;10839;43.206;23.550;2022-12-18T08:22:34;16.38;;;9.10;;
21360;SDS011;10839;43.206;23.550;2022-12-18T08:25:01;17.88;;;9.18;;
21360;SDS011;10839;43.206;23.550;2022-12-18T08:27:27;17.55;;;9.68;;
21360;SDS011;10839;43.206;23.550;2022-12-18T08:29:53;19.02;;;9.98;;
21360;SDS011;10839;43.206;23.550;2022-12-18T08:32:19;16.50;;;9.80;;
21360;SDS011;10839;43.206;23.550;2022-12-18T08:34:45;16.15;;;9.98;;
21360;SDS011;10839;43.206;23.550;2022-12-18T08:37:11;15.98;;;10.75;;
21360;SDS011;10839;43.206;23.550;2022-12-18T08:39:37;19.48;;;11.13;;
21360;SDS011;10839;43.206;23.550;2022-12-18T08:42:02;52.00;;;27.83;;
21360;SDS011;10839;43.206;23.550;2022-12-18T08:44:47;54.33;;;26.35;;
21360;SDS011;10839;43.206;23.550;2022-12-18T08:47:14;49.30;;;24.88;;
21360;SDS011;10839;43.206;23.550;2022-12-18T08:49:40;32.65;;;15.80;;
21360;SDS011;10839;43.206;23.550;2022-12-18T08:52:06;21.17;;;13.05;;
21360;SDS011;10839;43.206;23.550;2022-12-18T08:54:31;21.27;;;11.93;;
21360;SDS011;10839;43.206;23.550;2022-12-18T08:56:57;18.58;;;9.80;;
21360;SDS011;10839;43.206;23.550;2022-12-18T08:59:23;16.90;;;8.68;;
21360;SDS011;10839;43.206;23.550;2022-12-18T09:01:49;17.02;;;9.27;;
21360;SDS011;10839;43.206;23.550;2022-12-18T09:04:16;15.50;;;8.48;;
21360;SDS011;10839;43.206;23.550;2022-12-18T09:06:42;14.95;;;8.48;;
21360;SDS011;10839;43.206;23.550;2022-12-18T09:09:09;14.82;;;8.63;;
21360;SDS011;10839;43.206;23.550;2022-12-18T09:11:35;19.13;;;11.65;;
21360;SDS011;10839;43.206;23.550;2022-12-18T09:14:01;64.10;;;31.85;;
21360;SDS011;10839;43.206;23.550;2022-12-18T09:16:27;27.02;;;14.85;;
21360;SDS011;10839;43.206;23.550;2022-12-18T09:18:57;24.13;;;12.73;;
21360;SDS011;10839;43.206;23.550;2022-12-18T09:21:27;22.52;;;12.40;;
21360;SDS011;10839;43.206;23.550;2022-12-18T09:23:55;21.23;;;11.25;;
21360;SDS011;10839;43.206;23.550;2022-12-18T09:26:22;18.73;;;10.90;;
21360;SDS011;10839;43.206;23.550;2022-12-18T09:28:49;14.93;;;8.30;;
21360;SDS011;10839;43.206;23.550;2022-12-18T09:31:17;15.15;;;8.13;;
21360;SDS011;10839;43.206;23.550;2022-12-18T09:33:45;18.80;;;8.00;;
21360;SDS011;10839;43.206;23.550;2022-12-18T09:36:11;17.23;;;7.72;;
21360;SDS011;10839;43.206;23.550;2022-12-18T09:38:39;16.05;;;8.10;;
21360;SDS011;10839;43.206;23.550;2022-12-18T09:44:09;17.52;;;9.13;;
21360;SDS011;10839;43.206;23.550;2022-12-18T09:49:34;40.47;;;19.25;;
21360;SDS011;10839;43.206;23.550;2022-12-18T09:52:17;39.78;;;19.38;;
21360;SDS011;10839;43.206;23.550;2022-12-18T09:54:57;30.85;;;14.48;;
21360;SDS011;10839;43.206;23.550;2022-12-18T09:57:28;22.95;;;11.07;;
21360;SDS011;10839;43.206;23.550;2022-12-18T09:59:59;22.48;;;10.10;;
21360;SDS011;10839;43.206;23.550;2022-12-18T10:02:53;17.15;;;9.20;;
21360;SDS011;10839;43.206;23.550;2022-12-18T10:05:56;19.67;;;9.45;;
21360;SDS011;10839;43.206;23.550;2022-12-18T10:14:27;13.65;;;6.80;;
21360;SDS011;10839;43.206;23.550;2022-12-18T10:25:18;13.40;;;8.10;;
21360;SDS011;10839;43.206;23.550;2022-12-18T10:27:45;20.77;;;10.43;;
21360;SDS011;10839;43.206;23.550;2022-12-18T10:30:13;15.35;;;8.75;;
21360;SDS011;10839;43.206;23.550;2022-12-18T10:32:46;23.02;;;10.63;;
21360;SDS011;10839;43.206;23.550;2022-12-18T10:35:17;41.50;;;12.13;;
21360;SDS011;10839;43.206;23.550;2022-12-18T10:38:01;24.88;;;12.32;;
21360;SDS011;10839;43.206;23.550;2022-12-18T10:40:33;26.08;;;11.88;;
21360;SDS011;10839;43.206;23.550;2022-12-18T10:43:14;24.05;;;12.50;;
21360;SDS011;10839;43.206;23.550;2022-12-18T10:45:44;22.02;;;12.00;;
21360;SDS011;10839;43.206;23.550;2022-12-18T10:48:27;30.63;;;14.40;;
21360;SDS011;10839;43.206;23.550;2022-12-18T10:50:55;38.78;;;16.75;;
21360;SDS011;10839;43.206;23.550;2022-12-18T10:53:22;43.60;;;18.98;;
21360;SDS011;10839;43.206;23.550;2022-12-18T10:55:55;35.08;;;17.42;;
21360;SDS011;10839;43.206;23.550;2022-12-18T10:58:26;26.30;;;11.50;;
21360;SDS011;10839;43.206;23.550;2022-12-18T11:03:37;20.35;;;9.60;;
21360;SDS011;10839;43.206;23.550;2022-12-18T11:06:08;15.20;;;8.02;;
21360;SDS011;10839;43.206;23.550;2022-12-18T11:08:35;17.52;;;9.40;;
21360;SDS011;10839;43.206;23.550;2022-12-18T11:11:01;14.75;;;8.85;;
21360;SDS011;10839;43.206;23.550;2022-12-18T11:13:29;15.57;;;8.32;;
21360;SDS011;10839;43.206;23.550;2022-12-18T11:15:57;15.35;;;8.70;;
21360;SDS011;10839;43.206;23.550;2022-12-18T11:20:53;17.38;;;9.38;;
21360;SDS011;10839;43.206;23.550;2022-12-18T11:23:22;18.58;;;9.63;;
21360;SDS011;10839;43.206;23.550;2022-12-18T11:25:53;14.57;;;8.00;;
21360;SDS011;10839;43.206;23.550;2022-12-18T11:31:33;15.27;;;8.20;;
21360;SDS011;10839;43.206;23.550;2022-12-18T11:34:09;16.63;;;8.50;;
21360;SDS011;10839;43.206;23.550;2022-12-18T11:36:50;22.35;;;10.00;;
21360;SDS011;10839;43.206;23.550;2022-12-18T11:50:15;23.17;;;11.55;;
21360;SDS011;10839;43.206;23.550;2022-12-18T11:52:43;28.48;;;12.82;;
21360;SDS011;10839;43.206;23.550;2022-12-18T11:57:59;27.02;;;13.25;;
21360;SDS011;10839;43.206;23.550;2022-12-18T12:00:32;62.85;;;17.65;;
21360;SDS011;10839;43.206;23.550;2022-12-18T12:13:46;25.85;;;11.98;;
21360;SDS011;10839;43.206;23.550;2022-12-18T12:16:47;17.92;;;10.85;;
21360;SDS011;10839;43.206;23.550;2022-12-18T12:22:24;30.17;;;12.98;;
21360;SDS011;10839;43.206;23.550;2022-12-18T12:25:04;20.27;;;10.03;;
21360;SDS011;10839;43.206;23.550;2022-12-18T12:38:24;11.60;;;6.07;;
21360;SDS011;10839;43.206;23.550;2022-12-18T12:40:56;8.77;;;4.60;;
21360;SDS011;10839;43.206;23.550;2022-12-18T12:43:28;7.38;;;4.32;;
21360;SDS011;10839;43.206;23.550;2022-12-18T12:46:10;11.45;;;4.88;;
21360;SDS011;10839;43.206;23.550;2022-12-18T12:48:41;11.02;;;5.80;;
21360;SDS011;10839;43.206;23.550;2022-12-18T12:51:25;16.67;;;8.13;;
21360;SDS011;10839;43.206;23.550;2022-12-18T12:53:54;19.63;;;8.88;;
21360;SDS011;10839;43.206;23.550;2022-12-18T12:56:22;23.70;;;11.55;;
21360;SDS011;10839;43.206;23.550;2022-12-18T13:02:02;17.40;;;9.05;;
21360;SDS011;10839;43.206;23.550;2022-12-18T13:05:21;12.00;;;5.43;;
21360;SDS011;10839;43.206;23.550;2022-12-18T13:08:21;12.35;;;6.55;;
21360;SDS011;10839;43.206;23.550;2022-12-18T13:10:49;20.63;;;9.18;;
21360;SDS011;10839;43.206;23.550;2022-12-18T13:13:55;13.85;;;6.68;;
21360;SDS011;10839;43.206;23.550;2022-12-18T13:16:25;11.23;;;6.22;;
21360;SDS011;10839;43.206;23.550;2022-12-18T13:18:55;10.23;;;5.73;;
21360;SDS011;10839;43.206;23.550;2022-12-18T13:21:33;11.88;;;5.82;;
21360;SDS011;10839;43.206;23.550;2022-12-18T13:24:15;10.70;;;5.90;;
21360;SDS011;10839;43.206;23.550;2022-12-18T13:26:51;11.65;;;6.05;;
21360;SDS011;10839;43.206;23.550;2022-12-18T13:32:21;47.20;;;21.65;;
21360;SDS011;10839;43.206;23.550;2022-12-18T13:34:48;28.98;;;14.32;;
21360;SDS011;10839;43.206;23.550;2022-12-18T13:37:43;17.77;;;9.00;;
21360;SDS011;10839;43.206;23.550;2022-12-18T13:40:52;15.30;;;7.57;;
21360;SDS011;10839;43.206;23.550;2022-12-18T13:43:21;13.93;;;6.68;;
21360;SDS011;10839;43.206;23.550;2022-12-18T13:52:01;14.93;;;8.13;;
21360;SDS011;10839;43.206;23.550;2022-12-18T13:54:35;16.98;;;8.45;;
21360;SDS011;10839;43.206;23.550;2022-12-18T13:57:05;15.98;;;8.35;;
21360;SDS011;10839;43.206;23.550;2022-12-18T13:59:51;14.77;;;6.82;;
21360;SDS011;10839;43.206;23.550;2022-12-18T14:02:24;14.18;;;7.65;;
21360;SDS011;10839;43.206;23.550;2022-12-18T14:04:52;19.90;;;9.02;;
21360;SDS011;10839;43.206;23.550;2022-12-18T14:09:52;25.00;;;11.25;;
21360;SDS011;10839;43.206;23.550;2022-12-18T14:12:25;15.95;;;8.18;;
21360;SDS011;10839;43.206;23.550;2022-12-18T14:18:02;22.10;;;11.73;;
21360;SDS011;10839;43.206;23.550;2022-12-18T14:20:42;19.23;;;9.73;;
21360;SDS011;10839;43.206;23.550;2022-12-18T14:26:29;21.40;;;12.27;;
21360;SDS011;10839;43.206;23.550;2022-12-18T14:28:57;27.67;;;13.50;;
21360;SDS011;10839;43.206;23.550;2022-12-18T14:31:27;25.77;;;12.25;;
21360;SDS011;10839;43.206;23.550;2022-12-18T14:33:54;25.23;;;11.55;;
21360;SDS011;10839;43.206;23.550;2022-12-18T14:36:25;19.92;;;11.25;;
21360;SDS011;10839;43.206;23.550;2022-12-18T14:38:52;27.17;;;13.27;;
21360;SDS011;10839;43.206;23.550;2022-12-18T14:41:20;24.52;;;11.65;;
21360;SDS011;10839;43.206;23.550;2022-12-18T14:43:48;25.42;;;11.80;;
21360;SDS011;10839;43.206;23.550;2022-12-18T14:51:27;27.42;;;12.55;;
21360;SDS011;10839;43.206;23.550;2022-12-18T14:53:57;28.73;;;14.13;;
21360;SDS011;10839;43.206;23.550;2022-12-18T14:56:31;32.25;;;14.27;;
21360;SDS011;10839;43.206;23.550;2022-12-18T14:59:00;34.28;;;15.77;;
21360;SDS011;10839;43.206;23.550;2022-12-18T15:01:36;31.83;;;15.35;;
21360;SDS011;10839;43.206;23.550;2022-12-18T15:04:05;31.88;;;16.42;;
21360;SDS011;10839;43.206;23.550;2022-12-18T15:07:18;29.73;;;15.05;;
21360;SDS011;10839;43.206;23.550;2022-12-18T15:13:22;26.75;;;12.73;;
21360;SDS011;10839;43.206;23.550;2022-12-18T15:25:45;49.35;;;21.85;;
21360;SDS011;10839;43.206;23.550;2022-12-18T15:28:17;34.35;;;15.18;;
21360;SDS011;10839;43.206;23.550;2022-12-18T15:33:27;24.73;;;12.60;;
21360;SDS011;10839;43.206;23.550;2022-12-18T15:35:58;33.55;;;14.60;;
21360;SDS011;10839;43.206;23.550;2022-12-18T15:38:24;29.58;;;13.80;;
21360;SDS011;10839;43.206;23.550;2022-12-18T15:40:50;36.95;;;16.98;;
21360;SDS011;10839;43.206;23.550;2022-12-18T15:43:18;36.42;;;16.63;;
21360;SDS011;10839;43.206;23.550;2022-12-18T15:46:06;31.70;;;15.40;;
21360;SDS011;10839;43.206;23.550;2022-12-18T15:48:41;30.02;;;14.10;;
21360;SDS011;10839;43.206;23.550;2022-12-18T15:51:19;32.10;;;15.52;;
21360;SDS011;10839;43.206;23.550;2022-12-18T15:53:48;59.28;;;25.52;;
21360;SDS011;10839;43.206;23.550;2022-12-18T15:56:18;51.85;;;24.95;;
21360;SDS011;10839;43.206;23.550;2022-12-18T15:59:04;68.93;;;31.70;;
21360;SDS011;10839;43.206;23.550;2022-12-18T16:01:36;50.13;;;23.38;;
21360;SDS011;10839;43.206;23.550;2022-12-18T16:04:02;53.00;;;24.55;;
21360;SDS011;10839;43.206;23.550;2022-12-18T16:06:28;39.38;;;18.77;;
21360;SDS011;10839;43.206;23.550;2022-12-18T16:08:54;32.22;;;15.98;;
21360;SDS011;10839;43.206;23.550;2022-12-18T16:14:24;32.40;;;15.50;;
21360;SDS011;10839;43.206;23.550;2022-12-18T16:16:54;38.00;;;17.60;;
21360;SDS011;10839;43.206;23.550;2022-12-18T16:19:25;42.05;;;20.67;;
21360;SDS011;10839;43.206;23.550;2022-12-18T16:21:52;45.97;;;21.23;;
21360;SDS011;10839;43.206;23.550;2022-12-18T16:24:21;47.40;;;21.40;;
21360;SDS011;10839;43.206;23.550;2022-12-18T16:26:49;41.08;;;18.77;;
21360;SDS011;10839;43.206;23.550;2022-12-18T16:29:19;43.70;;;19.02;;
21360;SDS011;10839;43.206;23.550;2022-12-18T16:31:59;34.00;;;15.23;;
21360;SDS011;10839;43.206;23.550;2022-12-18T16:34:27;36.40;;;15.77;;
21360;SDS011;10839;43.206;23.550;2022-12-18T16:37:02;50.75;;;20.92;;
21360;SDS011;10839;43.206;23.550;2022-12-18T16:39:30;46.63;;;16.92;;
21360;SDS011;10839;43.206;23.550;2022-12-18T16:41:57;78.35;;;29.92;;
21360;SDS011;10839;43.206;23.550;2022-12-18T16:44:23;64.13;;;25.00;;
21360;SDS011;10839;43.206;23.550;2022-12-18T16:46:48;62.42;;;24.33;;
21360;SDS011;10839;43.206;23.550;2022-12-18T16:49:15;45.05;;;19.83;;
21360;SDS011;10839;43.206;23.550;2022-12-18T16:51:42;37.97;;;17.33;;